Grand Princess — ZCBU5 — position and weather

sailwx.info

Track history (hours):
 
Tides and Currents Weather Stations Pressure Air Temp Water Temp Dewpoint Dewpoint Depression Visibility Wind Speed Wind Dir Waves Ship Positions

Grand Princess

Operator: Princess Cruises

Last reported at 2019-Mar-22 10:00 UTC. Time now 2019-Mar-22 12:11 UTC.
Position N 29°48' W 117°18'.

Length 289.5 m; beam 36 m; draft 8.5 m.

Type: Ship. MMSI: 310327000.

Wind from 200 at 14 knots

Barometer 1021.3 mb
Air temperature 14.0 ° C
Visibility: greater than 10.8 NM
Dewpoint 10.5 ° C
Water temperature 18.0 ° C

Date/timePositionNaut miles runAvg speedWind from/ knotsBaromVisibWave heightAir tempDewpointWater temp
2019-Mar-22 10:00N 29°48' W 117°18'20216.8 200 / 141021.310.8 14.010.518.0
2019-Mar-21 22:00N 32°24' W 119°48'4927.0 200 / 141020.110.8 15.0 9.715.0
2019-Mar-21 20:10N 33°02' W 120°26'316.9
2019-Mar-21 20:01N 33°04' W 120°28'917.1
2019-Mar-21 19:31N 33°10' W 120°35'917.4
2019-Mar-21 19:01N 33°17' W 120°42'1317.4
2019-Mar-21 18:17N 33°26' W 120°51'517.2
2019-Mar-21 18:00N 33°30' W 120°55'917.1
2019-Mar-21 17:31N 33°36' W 121°02'917.2
2019-Mar-21 17:01N 33°43' W 121°09'917.3
2019-Mar-21 16:31N 33°50' W 121°15'917.0
2019-Mar-21 16:00N 33°57' W 121°20'917.2
2019-Mar-21 15:31N 34°05' W 121°24'917.6
2019-Mar-21 15:01N 34°13' W 121°29'917.6
2019-Mar-21 14:30N 34°21' W 121°33'917.8
2019-Mar-21 14:01N 34°29' W 121°38'918.2
2019-Mar-21 13:31N 34°37' W 121°42'918.5
2019-Mar-21 13:01N 34°46' W 121°47'4916.2
2019-Mar-21 10:00N 35°30' W 122°12'11817.4 200 / 191017.6 5.4 11.5 8.714.0
2019-Mar-21 03:14N 37°17' W 123°13'716.5
2019-Mar-21 02:48N 37°24' W 123°13'516.8
2019-Mar-21 02:31N 37°29' W 123°12'815.9
2019-Mar-21 02:01N 37°34' W 123°04'816.7
2019-Mar-21 01:31N 37°39' W 122°55'816.1
2019-Mar-21 01:01N 37°43' W 122°47'612.0
2019-Mar-21 00:31N 37°45' W 122°40'817.0
2019-Mar-21 00:01N 37°49' W 122°30'5 9.4
2019-Mar-20 23:30N 37°48' W 122°24'0 0.0
2019-Mar-20 23:00N 37°48' W 122°24'0 0.0
2019-Mar-20 22:30N 37°48' W 122°24'0 0.0
2019-Mar-20 22:00N 37°48' W 122°24'0 0.0
2019-Mar-20 21:30N 37°48' W 122°24'0 0.0
2019-Mar-20 21:00N 37°48' W 122°24'0 0.0
2019-Mar-20 20:30N 37°48' W 122°24'0 0.0
2019-Mar-20 20:00N 37°48' W 122°24'0 0.0
2019-Mar-20 19:30N 37°48' W 122°24'0 0.0
2019-Mar-20 19:00N 37°48' W 122°24'0 0.0
2019-Mar-20 18:30N 37°48' W 122°24'0 0.0
2019-Mar-20 18:00N 37°48' W 122°24'0 0.0
2019-Mar-20 17:30N 37°48' W 122°24'0 0.0
2019-Mar-20 17:00N 37°48' W 122°24'0 0.0
2019-Mar-20 16:30N 37°48' W 122°24'0 0.0
2019-Mar-20 16:00N 37°48' W 122°24'0 0.0
2019-Mar-20 15:30N 37°48' W 122°24'0 0.0
2019-Mar-20 15:00N 37°48' W 122°24'0 0.0
2019-Mar-20 14:30N 37°48' W 122°24'0 0.0
2019-Mar-20 14:00N 37°48' W 122°24'0 0.4
2019-Mar-20 13:30N 37°48' W 122°24'2 4.0
2019-Mar-20 13:00N 37°49' W 122°26'5 9.8
2019-Mar-20 12:30N 37°48' W 122°32'713.8
2019-Mar-20 12:00N 37°46' W 122°41'612.0
2019-Mar-20 11:30N 37°47' W 122°48'612.9
2019-Mar-20 11:00N 37°50' W 122°55'713.2
2019-Mar-20 10:30N 37°54' W 123°02'713.6
2019-Mar-20 10:01N 37°57' W 123°10'9555.3
2019-Mar-20 10:00N 37°48' W 123°06'1632.4 200 / 191010.4 5.4 11.510.614.0
2019-Mar-20 09:30N 38°02' W 123°16'713.5
2019-Mar-20 09:00N 38°07' W 123°21'713.2
2019-Mar-20 08:30N 38°12' W 123°26'612.6
2019-Mar-20 08:00N 38°17' W 123°32'816.2
2019-Mar-20 07:31N 38°23' W 123°38'816.7
2019-Mar-20 07:00N 38°29' W 123°45'816.8
2019-Mar-20 06:30N 38°36' W 123°52'916.8
2019-Mar-20 05:57N 38°43' W 123°60'13314.9
2019-Mar-19 21:00N 40°48' W 125°00'23722.3 130 / 101010.110.8 11.5 9.711.0
2019-Mar-19 10:24N 44°44' W 124°32'920.2
2019-Mar-19 09:58N 44°52' W 124°30'920.2
2019-Mar-19 09:30N 45°01' W 124°28'1019.9
2019-Mar-19 09:00N 45°11' W 124°26'1019.8
2019-Mar-19 08:30N 45°21' W 124°24'1019.6
2019-Mar-19 08:01N 45°31' W 124°22'1519.5
2019-Mar-19 07:16N 45°45' W 124°19'519.3
2019-Mar-19 07:00N 45°50' W 124°18'918.3
2019-Mar-19 06:31N 45°59' W 124°16'816.6
2019-Mar-19 06:00N 46°07' W 124°14'4 8.8
2019-Mar-19 05:30N 46°11' W 124°13'1 1.8
2019-Mar-19 05:00N 46°11' W 124°11'1 1.8
2019-Mar-19 04:30N 46°12' W 124°11'611.6
2019-Mar-19 04:00N 46°15' W 124°04'713.9
2019-Mar-19 03:30N 46°12' W 123°55'510.4
2019-Mar-19 03:00N 46°12' W 123°48'612.8
2019-Mar-19 02:30N 46°15' W 123°40'714.4
2019-Mar-19 01:59N 46°16' W 123°29'612.8
2019-Mar-19 01:30N 46°11' W 123°25'611.6
2019-Mar-19 01:00N 46°09' W 123°18'713.7
2019-Mar-19 00:31N 46°11' W 123°09'713.5
2019-Mar-19 00:00N 46°08' W 123°00'510.0
2019-Mar-18 23:30N 46°05' W 122°54'5 9.5
2019-Mar-18 23:00N 46°01' W 122°51'5 9.9
2019-Mar-18 22:30N 45°56' W 122°48'611.2
2019-Mar-18 22:00N 45°51' W 122°47'713.2
2019-Mar-18 21:30N 45°44' W 122°46'611.2
2019-Mar-18 21:01N 45°39' W 122°46'3 5.9
2019-Mar-18 20:30N 45°36' W 122°47'2 4.5
2019-Mar-18 20:01N 45°34' W 122°44'0 0.1
2019-Mar-18 19:31N 45°34' W 122°44'0 0.1
2019-Mar-18 19:00N 45°34' W 122°44'0 0.3
2019-Mar-18 18:31N 45°34' W 122°44'0 0.2
2019-Mar-18 17:58N 45°34' W 122°44'0 0.5
2019-Mar-18 17:30N 45°34' W 122°44'0 0.1
2019-Mar-18 16:58N 45°34' W 122°44'0 0.0
2019-Mar-18 16:28N 45°34' W 122°44'0 0.0
2019-Mar-18 15:58N 45°34' W 122°44'0 0.0
2019-Mar-18 15:28N 45°34' W 122°44'0 0.0
2019-Mar-18 14:58N 45°34' W 122°44'0 0.0
2019-Mar-18 14:25N 45°34' W 122°44'0 0.0
2019-Mar-18 13:55N 45°34' W 122°44'0 0.0
2019-Mar-18 13:28N 45°34' W 122°44'0 0.0
2019-Mar-18 12:58N 45°34' W 122°44'0 0.0
2019-Mar-18 12:28N 45°34' W 122°44'0 0.0
2019-Mar-18 11:58N 45°34' W 122°44'0 0.0
2019-Mar-18 11:28N 45°34' W 122°44'0 0.0
2019-Mar-18 10:58N 45°34' W 122°44'0 0.0
2019-Mar-18 10:28N 45°34' W 122°44'0 0.0
2019-Mar-18 09:58N 45°34' W 122°44'0 0.0
2019-Mar-18 09:28N 45°34' W 122°44'0 0.0
2019-Mar-18 08:58N 45°34' W 122°44'0 0.0
2019-Mar-18 08:28N 45°34' W 122°44'0 0.0
2019-Mar-18 07:58N 45°34' W 122°44'0 0.0
2019-Mar-18 07:28N 45°34' W 122°44'0 0.0
2019-Mar-18 06:58N 45°34' W 122°44'0 0.0
2019-Mar-18 06:31N 45°34' W 122°44'0 0.0
2019-Mar-18 06:01N 45°34' W 122°44'0 0.0
2019-Mar-18 05:29N 45°34' W 122°44'0 0.0
2019-Mar-18 04:59N 45°34' W 122°44'0 0.0
2019-Mar-18 04:29N 45°34' W 122°44'0 0.0
2019-Mar-18 03:59N 45°34' W 122°44'0 0.0
2019-Mar-18 03:29N 45°34' W 122°44'0 0.0
2019-Mar-18 02:59N 45°34' W 122°44'0 0.0
2019-Mar-18 02:25N 45°34' W 122°44'0 0.0
2019-Mar-18 01:59N 45°34' W 122°44'0 0.0
2019-Mar-18 01:29N 45°34' W 122°44'0 0.0
2019-Mar-18 00:59N 45°34' W 122°44'0 0.0
2019-Mar-18 00:29N 45°34' W 122°44'0 0.0
2019-Mar-17 23:59N 45°34' W 122°44'0 0.0
2019-Mar-17 23:29N 45°34' W 122°44'0 0.0
2019-Mar-17 22:59N 45°34' W 122°44'0 0.0
2019-Mar-17 22:29N 45°34' W 122°44'0 0.0
2019-Mar-17 21:59N 45°34' W 122°44'0 0.0
2019-Mar-17 21:29N 45°34' W 122°44'0 0.0
2019-Mar-17 20:59N 45°34' W 122°44'0 0.0
2019-Mar-17 20:26N 45°34' W 122°44'0 0.0
2019-Mar-17 19:50N 45°34' W 122°44'0 0.0
2019-Mar-17 19:20N 45°34' W 122°44'0 0.0
2019-Mar-17 18:50N 45°34' W 122°44'0 0.0
2019-Mar-17 18:26N 45°34' W 122°44'0 0.0
2019-Mar-17 17:50N 45°34' W 122°44'0 0.0
2019-Mar-17 17:30N 45°34' W 122°44'0 0.0
2019-Mar-17 17:00N 45°34' W 122°44'  
Track history (hours):
 
Tides and Currents Weather Stations Pressure Air Temp Water Temp Dewpoint Dewpoint Depression Visibility Wind Speed Wind Dir Waves Ship Positions

Grand Princess

Operator: Princess Cruises

Last reported at 2019-Mar-22 10:00 UTC. Time now 2019-Mar-22 12:11 UTC.
Position N 29°48' W 117°18'.

Length 289.5 m; beam 36 m; draft 8.5 m.

Type: Ship. MMSI: 310327000.

Wind from 200 at 14 knots

Barometer 1021.3 mb
Air temperature 14.0 ° C
Visibility: greater than 10.8 NM
Dewpoint 10.5 ° C
Water temperature 18.0 ° C

Date/timePositionNaut miles runAvg speedWind from/ knotsBaromVisibWave heightAir tempDewpointWater temp
2019-Mar-22 10:00N 29°48' W 117°18'20216.8 200 / 141021.310.8 14.010.518.0
2019-Mar-21 22:00N 32°24' W 119°48'4927.0 200 / 141020.110.8 15.0 9.715.0
2019-Mar-21 20:10N 33°02' W 120°26'316.9
2019-Mar-21 20:01N 33°04' W 120°28'917.1
2019-Mar-21 19:31N 33°10' W 120°35'917.4
2019-Mar-21 19:01N 33°17' W 120°42'1317.4
2019-Mar-21 18:17N 33°26' W 120°51'517.2
2019-Mar-21 18:00N 33°30' W 120°55'917.1
2019-Mar-21 17:31N 33°36' W 121°02'917.2
2019-Mar-21 17:01N 33°43' W 121°09'917.3
2019-Mar-21 16:31N 33°50' W 121°15'917.0
2019-Mar-21 16:00N 33°57' W 121°20'917.2
2019-Mar-21 15:31N 34°05' W 121°24'917.6
2019-Mar-21 15:01N 34°13' W 121°29'917.6
2019-Mar-21 14:30N 34°21' W 121°33'917.8
2019-Mar-21 14:01N 34°29' W 121°38'918.2
2019-Mar-21 13:31N 34°37' W 121°42'918.5
2019-Mar-21 13:01N 34°46' W 121°47'4916.2
2019-Mar-21 10:00N 35°30' W 122°12'11817.4 200 / 191017.6 5.4 11.5 8.714.0
2019-Mar-21 03:14N 37°17' W 123°13'716.5
2019-Mar-21 02:48N 37°24' W 123°13'516.8
2019-Mar-21 02:31N 37°29' W 123°12'815.9
2019-Mar-21 02:01N 37°34' W 123°04'816.7
2019-Mar-21 01:31N 37°39' W 122°55'816.1
2019-Mar-21 01:01N 37°43' W 122°47'612.0
2019-Mar-21 00:31N 37°45' W 122°40'817.0
2019-Mar-21 00:01N 37°49' W 122°30'5 9.4
2019-Mar-20 23:30N 37°48' W 122°24'0 0.0
2019-Mar-20 23:00N 37°48' W 122°24'0 0.0
2019-Mar-20 22:30N 37°48' W 122°24'0 0.0
2019-Mar-20 22:00N 37°48' W 122°24'0 0.0
2019-Mar-20 21:30N 37°48' W 122°24'0 0.0
2019-Mar-20 21:00N 37°48' W 122°24'0 0.0
2019-Mar-20 20:30N 37°48' W 122°24'0 0.0
2019-Mar-20 20:00N 37°48' W 122°24'0 0.0
2019-Mar-20 19:30N 37°48' W 122°24'0 0.0
2019-Mar-20 19:00N 37°48' W 122°24'0 0.0
2019-Mar-20 18:30N 37°48' W 122°24'0 0.0
2019-Mar-20 18:00N 37°48' W 122°24'0 0.0
2019-Mar-20 17:30N 37°48' W 122°24'0 0.0
2019-Mar-20 17:00N 37°48' W 122°24'0 0.0
2019-Mar-20 16:30N 37°48' W 122°24'0 0.0
2019-Mar-20 16:00N 37°48' W 122°24'0 0.0
2019-Mar-20 15:30N 37°48' W 122°24'0 0.0
2019-Mar-20 15:00N 37°48' W 122°24'0 0.0
2019-Mar-20 14:30N 37°48' W 122°24'0 0.0
2019-Mar-20 14:00N 37°48' W 122°24'0 0.4
2019-Mar-20 13:30N 37°48' W 122°24'2 4.0
2019-Mar-20 13:00N 37°49' W 122°26'5 9.8
2019-Mar-20 12:30N 37°48' W 122°32'713.8
2019-Mar-20 12:00N 37°46' W 122°41'612.0
2019-Mar-20 11:30N 37°47' W 122°48'612.9
2019-Mar-20 11:00N 37°50' W 122°55'713.2
2019-Mar-20 10:30N 37°54' W 123°02'713.6
2019-Mar-20 10:01N 37°57' W 123°10'9555.3
2019-Mar-20 10:00N 37°48' W 123°06'1632.4 200 / 191010.4 5.4 11.510.614.0
2019-Mar-20 09:30N 38°02' W 123°16'713.5
2019-Mar-20 09:00N 38°07' W 123°21'713.2
2019-Mar-20 08:30N 38°12' W 123°26'612.6
2019-Mar-20 08:00N 38°17' W 123°32'816.2
2019-Mar-20 07:31N 38°23' W 123°38'816.7
2019-Mar-20 07:00N 38°29' W 123°45'816.8
2019-Mar-20 06:30N 38°36' W 123°52'916.8
2019-Mar-20 05:57N 38°43' W 123°60'13314.9
2019-Mar-19 21:00N 40°48' W 125°00'23722.3 130 / 101010.110.8 11.5 9.711.0
2019-Mar-19 10:24N 44°44' W 124°32'920.2
2019-Mar-19 09:58N 44°52' W 124°30'920.2
2019-Mar-19 09:30N 45°01' W 124°28'1019.9
2019-Mar-19 09:00N 45°11' W 124°26'1019.8
2019-Mar-19 08:30N 45°21' W 124°24'1019.6
2019-Mar-19 08:01N 45°31' W 124°22'1519.5
2019-Mar-19 07:16N 45°45' W 124°19'519.3
2019-Mar-19 07:00N 45°50' W 124°18'918.3
2019-Mar-19 06:31N 45°59' W 124°16'816.6
2019-Mar-19 06:00N 46°07' W 124°14'4 8.8
2019-Mar-19 05:30N 46°11' W 124°13'1 1.8
2019-Mar-19 05:00N 46°11' W 124°11'1 1.8
2019-Mar-19 04:30N 46°12' W 124°11'611.6
2019-Mar-19 04:00N 46°15' W 124°04'713.9
2019-Mar-19 03:30N 46°12' W 123°55'510.4
2019-Mar-19 03:00N 46°12' W 123°48'612.8
2019-Mar-19 02:30N 46°15' W 123°40'714.4
2019-Mar-19 01:59N 46°16' W 123°29'612.8
2019-Mar-19 01:30N 46°11' W 123°25'611.6
2019-Mar-19 01:00N 46°09' W 123°18'713.7
2019-Mar-19 00:31N 46°11' W 123°09'713.5
2019-Mar-19 00:00N 46°08' W 123°00'510.0
2019-Mar-18 23:30N 46°05' W 122°54'5 9.5
2019-Mar-18 23:00N 46°01' W 122°51'5 9.9
2019-Mar-18 22:30N 45°56' W 122°48'611.2
2019-Mar-18 22:00N 45°51' W 122°47'713.2
2019-Mar-18 21:30N 45°44' W 122°46'611.2
2019-Mar-18 21:01N 45°39' W 122°46'3 5.9
2019-Mar-18 20:30N 45°36' W 122°47'2 4.5
2019-Mar-18 20:01N 45°34' W 122°44'0 0.1
2019-Mar-18 19:31N 45°34' W 122°44'0 0.1
2019-Mar-18 19:00N 45°34' W 122°44'0 0.3
2019-Mar-18 18:31N 45°34' W 122°44'0 0.2
2019-Mar-18 17:58N 45°34' W 122°44'0 0.5
2019-Mar-18 17:30N 45°34' W 122°44'0 0.1
2019-Mar-18 16:58N 45°34' W 122°44'0 0.0
2019-Mar-18 16:28N 45°34' W 122°44'0 0.0
2019-Mar-18 15:58N 45°34' W 122°44'0 0.0
2019-Mar-18 15:28N 45°34' W 122°44'0 0.0
2019-Mar-18 14:58N 45°34' W 122°44'0 0.0
2019-Mar-18 14:25N 45°34' W 122°44'0 0.0
2019-Mar-18 13:55N 45°34' W 122°44'0 0.0
2019-Mar-18 13:28N 45°34' W 122°44'0 0.0
2019-Mar-18 12:58N 45°34' W 122°44'0 0.0
2019-Mar-18 12:28N 45°34' W 122°44'0 0.0
2019-Mar-18 11:58N 45°34' W 122°44'0 0.0
2019-Mar-18 11:28N 45°34' W 122°44'0 0.0
2019-Mar-18 10:58N 45°34' W 122°44'0 0.0
2019-Mar-18 10:28N 45°34' W 122°44'0 0.0
2019-Mar-18 09:58N 45°34' W 122°44'0 0.0
2019-Mar-18 09:28N 45°34' W 122°44'0 0.0
2019-Mar-18 08:58N 45°34' W 122°44'0 0.0
2019-Mar-18 08:28N 45°34' W 122°44'0 0.0
2019-Mar-18 07:58N 45°34' W 122°44'0 0.0
2019-Mar-18 07:28N 45°34' W 122°44'0 0.0
2019-Mar-18 06:58N 45°34' W 122°44'0 0.0
2019-Mar-18 06:31N 45°34' W 122°44'0 0.0
2019-Mar-18 06:01N 45°34' W 122°44'0 0.0
2019-Mar-18 05:29N 45°34' W 122°44'0 0.0
2019-Mar-18 04:59N 45°34' W 122°44'0 0.0
2019-Mar-18 04:29N 45°34' W 122°44'0 0.0
2019-Mar-18 03:59N 45°34' W 122°44'0 0.0
2019-Mar-18 03:29N 45°34' W 122°44'0 0.0
2019-Mar-18 02:59N 45°34' W 122°44'0 0.0
2019-Mar-18 02:25N 45°34' W 122°44'0 0.0
2019-Mar-18 01:59N 45°34' W 122°44'0 0.0
2019-Mar-18 01:29N 45°34' W 122°44'0 0.0
2019-Mar-18 00:59N 45°34' W 122°44'0 0.0
2019-Mar-18 00:29N 45°34' W 122°44'0 0.0
2019-Mar-17 23:59N 45°34' W 122°44'0 0.0
2019-Mar-17 23:29N 45°34' W 122°44'0 0.0
2019-Mar-17 22:59N 45°34' W 122°44'0 0.0
2019-Mar-17 22:29N 45°34' W 122°44'0 0.0
2019-Mar-17 21:59N 45°34' W 122°44'0 0.0
2019-Mar-17 21:29N 45°34' W 122°44'0 0.0
2019-Mar-17 20:59N 45°34' W 122°44'0 0.0
2019-Mar-17 20:26N 45°34' W 122°44'0 0.0
2019-Mar-17 19:50N 45°34' W 122°44'0 0.0
2019-Mar-17 19:20N 45°34' W 122°44'0 0.0
2019-Mar-17 18:50N 45°34' W 122°44'0 0.0
2019-Mar-17 18:26N 45°34' W 122°44'0 0.0
2019-Mar-17 17:50N 45°34' W 122°44'0 0.0
2019-Mar-17 17:30N 45°34' W 122°44'0 0.0
2019-Mar-17 17:00N 45°34' W 122°44'  

Dump ship's entire track history